createdAt,value
2018-07-01T00:06:36.007Z,16.68
2018-07-01T00:16:35.989Z,16.7
2018-07-01T00:26:35.976Z,16.6
2018-07-01T00:36:36.015Z,16.5
2018-07-01T00:46:35.983Z,16.26
2018-07-01T00:56:35.983Z,16.23
2018-07-01T01:06:35.973Z,15.97
2018-07-01T01:16:35.980Z,16.01
2018-07-01T01:26:35.982Z,15.81
2018-07-01T01:36:36.003Z,15.67
2018-07-01T01:46:35.999Z,15.41
2018-07-01T01:56:35.985Z,15.51
2018-07-01T02:06:35.990Z,15.46
2018-07-01T02:16:35.989Z,15.51
2018-07-01T02:26:35.960Z,15.35
2018-07-01T02:36:35.971Z,15.23
2018-07-01T02:46:36.014Z,15.06
2018-07-01T02:56:36.090Z,14.8
2018-07-01T03:06:35.995Z,14.83
2018-07-01T03:16:35.990Z,14.72
2018-07-01T03:26:35.940Z,14.74
2018-07-01T03:36:35.970Z,14.86
2018-07-01T03:46:35.983Z,14.88
2018-07-01T03:56:35.958Z,15.13
2018-07-01T04:06:35.973Z,15.64
2018-07-01T04:16:35.987Z,15.43
2018-07-01T04:26:35.964Z,15.54
2018-07-01T04:36:35.952Z,15.72
2018-07-01T04:46:36.004Z,15.96
2018-07-01T04:56:35.977Z,16.26
2018-07-01T05:06:35.977Z,16.73
2018-07-01T05:16:36.061Z,17.54
2018-07-01T05:26:36.007Z,18.31
2018-07-01T05:36:36.012Z,18.42
2018-07-01T05:46:36.021Z,18.58
2018-07-01T05:56:35.973Z,21.05
2018-07-01T06:06:36.010Z,26.69
2018-07-01T06:16:36.031Z,29.01
2018-07-01T06:26:36.095Z,30.33
2018-07-01T06:36:36.008Z,31.57
2018-07-01T06:46:36.029Z,31.96
2018-07-01T06:56:35.995Z,33.36
2018-07-01T07:06:36.017Z,32.92
2018-07-01T07:16:36.089Z,32.13
2018-07-01T07:26:36.625Z,32.7
2018-07-01T07:36:36.138Z,33.46
2018-07-01T07:46:35.994Z,32.8
2018-07-01T07:56:36.455Z,33.61
2018-07-01T08:06:36.104Z,33.14
2018-07-01T08:16:37.276Z,33.49
2018-07-01T08:26:44.021Z,32.77
2018-07-01T08:36:42.792Z,33.29
2018-07-01T08:46:42.280Z,34.76
2018-07-01T09:06:42.050Z,33.71
2018-07-01T09:16:39.419Z,30.91
2018-07-01T09:36:43.510Z,24.56
2018-07-01T09:46:38.306Z,24.24
2018-07-01T09:56:40.718Z,24.12
2018-07-01T10:06:40.585Z,24.34
2018-07-01T10:26:36.151Z,24.64
2018-07-01T10:36:36.308Z,24.41
2018-07-01T10:46:36.286Z,24.37
2018-07-01T10:56:36.104Z,24.52
2018-07-01T11:06:36.169Z,24.5
2018-07-01T11:16:36.124Z,24.54
2018-07-01T11:26:36.217Z,24.57
2018-07-01T11:36:36.081Z,24.76
2018-07-01T11:46:36.190Z,24.76
2018-07-01T11:56:36.173Z,24.67
2018-07-01T12:06:36.909Z,24.44
2018-07-01T12:16:36.088Z,24.53
2018-07-01T12:26:36.611Z,25.07
2018-07-01T12:36:36.108Z,25.09
2018-07-01T12:46:36.081Z,25.01
2018-07-01T12:56:36.190Z,25.05
2018-07-01T13:06:36.110Z,25.01
2018-07-01T13:16:36.124Z,25.09
2018-07-01T13:26:36.107Z,25.09
2018-07-01T13:36:36.083Z,25.09
2018-07-01T13:46:36.099Z,25.15
2018-07-01T13:56:36.349Z,25.56
2018-07-01T14:06:36.163Z,25.43
2018-07-01T14:16:36.137Z,25.47
2018-07-01T14:26:36.168Z,25.47
2018-07-01T14:36:36.194Z,25.77
2018-07-01T14:46:36.128Z,25.57
2018-07-01T14:56:36.117Z,25.53
2018-07-01T15:06:36.122Z,25.59
2018-07-01T15:16:36.161Z,25.56
2018-07-01T15:26:36.161Z,25.77
2018-07-01T15:36:36.289Z,25.83
2018-07-01T15:46:36.128Z,26.02
2018-07-01T15:56:36.124Z,25.72
2018-07-01T16:06:36.195Z,25.35
2018-07-01T16:16:36.181Z,25.39
2018-07-01T16:26:36.187Z,25.44
2018-07-01T16:36:36.286Z,25.28
2018-07-01T16:46:36.275Z,25.19
2018-07-01T16:56:36.260Z,24.98
2018-07-01T17:06:36.575Z,24.94
2018-07-01T17:16:36.292Z,24.79
2018-07-01T17:26:36.200Z,24.6
2018-07-01T17:36:36.323Z,24.52
2018-07-01T17:46:36.288Z,24.26
2018-07-01T17:56:36.175Z,24.22
2018-07-01T18:06:36.201Z,24.01
2018-07-01T18:16:36.272Z,23.86
2018-07-01T18:26:36.311Z,23.65
2018-07-01T18:36:36.209Z,23.46
2018-07-01T18:46:37.306Z,23.26
2018-07-01T18:56:36.216Z,22.9
2018-07-01T19:06:36.230Z,22.62
2018-07-01T19:16:36.201Z,22.25
2018-07-01T19:26:36.244Z,21.75
2018-07-01T19:36:37.161Z,21.66
2018-07-01T19:46:36.379Z,21.23
2018-07-01T19:56:36.242Z,20.84
2018-07-01T20:06:36.338Z,20.51
2018-07-01T20:16:36.188Z,20.33
2018-07-01T20:26:36.221Z,19.94
2018-07-01T20:36:36.380Z,19.65
2018-07-01T20:46:36.215Z,19.24
2018-07-01T20:56:36.380Z,18.8
2018-07-01T21:06:36.258Z,18.13
2018-07-01T21:16:36.222Z,17.32
2018-07-01T21:26:36.236Z,16.8
2018-07-01T21:36:36.317Z,16.15
2018-07-01T21:46:36.394Z,15.88
2018-07-01T21:56:36.334Z,15.49
2018-07-01T22:06:36.305Z,15.33
2018-07-01T22:16:36.285Z,14.91
2018-07-01T22:26:36.253Z,14.88
2018-07-01T22:37:04.732Z,14.84
2018-07-01T22:46:41.612Z,14.74
2018-07-01T22:56:36.281Z,14.52
2018-07-01T23:06:36.282Z,14.38
2018-07-01T23:16:36.256Z,14.35
2018-07-01T23:26:36.252Z,14.57
2018-07-01T23:36:36.267Z,14.88
2018-07-01T23:46:36.227Z,14.72
2018-07-01T23:56:36.276Z,14.65
